createdAt,value
2024-03-16T00:00:39.853Z,4.87
2024-03-16T00:03:06.619Z,4.90
2024-03-16T00:05:33.249Z,4.60
2024-03-16T00:07:59.944Z,4.30
2024-03-16T00:10:26.684Z,4.33
2024-03-16T00:12:53.310Z,4.30
2024-03-16T00:15:19.925Z,4.63
2024-03-16T00:17:46.694Z,4.60
2024-03-16T00:20:13.233Z,4.50
2024-03-16T00:22:40.266Z,4.40
2024-03-16T00:25:09.962Z,4.03
2024-03-16T00:27:36.685Z,4.40
2024-03-16T00:30:07.865Z,4.20
2024-03-16T00:32:34.612Z,4.00
2024-03-16T00:35:02.346Z,3.93
2024-03-16T00:37:28.809Z,4.33
2024-03-16T00:39:57.735Z,4.37
2024-03-16T00:42:25.379Z,4.30
2024-03-16T00:44:53.139Z,5.03
2024-03-16T00:47:19.998Z,4.60
2024-03-16T00:49:46.633Z,4.17
2024-03-16T00:52:13.117Z,5.40
2024-03-16T00:54:39.800Z,5.47
2024-03-16T00:57:06.370Z,4.80
2024-03-16T00:59:33.678Z,5.07
2024-03-16T01:02:00.313Z,5.33
2024-03-16T01:04:27.697Z,5.30
2024-03-16T01:06:54.447Z,4.30
2024-03-16T01:09:21.301Z,5.30
2024-03-16T01:11:47.884Z,4.90
2024-03-16T01:14:14.721Z,4.83
2024-03-16T01:16:41.202Z,3.97
2024-03-16T01:19:07.752Z,4.60
2024-03-16T01:21:34.287Z,4.27
2024-03-16T01:24:00.795Z,4.60
2024-03-16T01:26:27.300Z,4.90
2024-03-16T01:28:53.682Z,4.10
2024-03-16T01:31:20.407Z,4.60
2024-03-16T01:33:46.950Z,4.57
2024-03-16T01:36:14.920Z,4.07
2024-03-16T01:38:41.477Z,4.33
2024-03-16T01:41:07.960Z,4.40
2024-03-16T01:43:34.828Z,4.10
2024-03-16T01:46:01.425Z,4.03
2024-03-16T01:48:28.176Z,3.70
2024-03-16T01:50:55.494Z,4.07
2024-03-16T01:53:22.289Z,3.23
2024-03-16T01:55:48.940Z,4.30
2024-03-16T01:58:15.587Z,3.80
2024-03-16T02:00:48.404Z,4.00
2024-03-16T02:03:15.243Z,4.20
2024-03-16T02:05:43.383Z,3.63
2024-03-16T02:08:10.167Z,4.17
2024-03-16T02:10:36.691Z,3.90
2024-03-16T02:13:03.837Z,3.90
2024-03-16T02:15:30.451Z,4.47
2024-03-16T02:17:57.012Z,4.10
2024-03-16T02:20:23.660Z,4.43
2024-03-16T02:22:51.209Z,4.07
2024-03-16T02:25:19.390Z,3.53
2024-03-16T02:27:45.986Z,3.93
2024-03-16T02:30:14.713Z,3.23
2024-03-16T02:32:41.282Z,3.40
2024-03-16T02:35:10.400Z,3.60
2024-03-16T02:37:37.583Z,4.03
2024-03-16T02:40:07.539Z,2.77
2024-03-16T02:42:34.266Z,3.17
2024-03-16T02:45:01.009Z,2.93
2024-03-16T02:47:27.576Z,2.90
2024-03-16T02:49:54.384Z,3.33
2024-03-16T02:52:20.864Z,2.90
2024-03-16T02:54:48.708Z,2.90
2024-03-16T02:57:15.224Z,3.83
2024-03-16T02:59:41.732Z,3.17
2024-03-16T03:02:08.266Z,3.57
2024-03-16T03:04:35.528Z,3.00
2024-03-16T03:07:02.872Z,3.23
2024-03-16T03:09:29.398Z,3.10
2024-03-16T03:11:56.717Z,3.40
2024-03-16T03:14:23.249Z,2.97
2024-03-16T03:16:49.829Z,3.37
2024-03-16T03:19:16.377Z,2.80
2024-03-16T03:21:43.335Z,3.07
2024-03-16T03:24:09.796Z,3.33
2024-03-16T03:26:36.332Z,3.40
2024-03-16T03:29:02.924Z,3.47
2024-03-16T03:31:29.404Z,3.20
2024-03-16T03:33:55.891Z,2.73
2024-03-16T03:36:22.429Z,3.20
2024-03-16T03:38:49.245Z,3.30
2024-03-16T03:41:16.065Z,3.20
2024-03-16T03:43:49.220Z,3.90
2024-03-16T03:46:39.990Z,3.10
2024-03-16T03:49:13.377Z,3.00
2024-03-16T03:51:40.121Z,3.00
2024-03-16T03:54:07.754Z,3.00
2024-03-16T03:56:37.434Z,2.93
2024-03-16T03:59:03.940Z,3.07
2024-03-16T04:01:31.091Z,3.03
2024-03-16T04:03:57.683Z,2.70
2024-03-16T04:06:25.864Z,3.10
2024-03-16T04:08:52.685Z,2.47
2024-03-16T04:11:20.172Z,2.83
2024-03-16T04:13:46.604Z,3.13
2024-03-16T04:16:16.007Z,2.90
2024-03-16T04:18:43.030Z,2.77
2024-03-16T04:21:09.834Z,3.47
2024-03-16T04:23:36.730Z,3.03
2024-03-16T04:26:03.255Z,2.80
2024-03-16T04:28:29.701Z,3.10
2024-03-16T04:30:56.155Z,2.30
2024-03-16T04:33:22.457Z,3.10
2024-03-16T04:35:48.995Z,3.10
2024-03-16T04:38:15.489Z,3.03
2024-03-16T04:40:43.876Z,2.80
2024-03-16T04:43:10.508Z,3.10
2024-03-16T04:45:36.762Z,2.50
2024-03-16T04:48:03.499Z,2.83
2024-03-16T04:50:30.010Z,2.53
2024-03-16T04:52:56.880Z,2.80
2024-03-16T04:55:23.347Z,2.40
2024-03-16T04:57:49.943Z,2.40
2024-03-16T05:00:16.852Z,2.43
2024-03-16T05:02:44.663Z,2.70
2024-03-16T05:05:11.204Z,3.03
2024-03-16T05:07:40.176Z,3.60
2024-03-16T05:10:07.289Z,4.70
2024-03-16T05:12:33.983Z,5.03
2024-03-16T05:15:02.572Z,5.70
2024-03-16T05:17:30.136Z,5.70
2024-03-16T05:19:59.090Z,6.37
2024-03-16T05:22:26.767Z,6.93
2024-03-16T05:24:53.395Z,6.07
2024-03-16T05:27:19.929Z,5.90
2024-03-16T05:29:47.040Z,6.40
2024-03-16T05:32:14.110Z,5.80
2024-03-16T05:34:41.701Z,5.23
2024-03-16T05:37:08.306Z,4.50
2024-03-16T05:39:35.331Z,4.00
2024-03-16T05:42:01.984Z,3.60
2024-03-16T05:44:28.688Z,3.70
2024-03-16T05:46:55.176Z,3.40
2024-03-16T05:49:22.778Z,3.50
2024-03-16T05:51:52.316Z,3.00
2024-03-16T05:54:18.964Z,2.60
2024-03-16T05:56:45.458Z,2.60
2024-03-16T05:59:12.403Z,2.60
2024-03-16T06:01:39.184Z,2.43
2024-03-16T06:04:05.811Z,2.37
2024-03-16T06:06:33.512Z,2.37
2024-03-16T06:09:01.429Z,2.23
2024-03-16T06:11:28.283Z,2.30
2024-03-16T06:13:54.775Z,2.33
2024-03-16T06:16:22.908Z,2.40
2024-03-16T06:18:49.823Z,2.37
2024-03-16T06:21:16.419Z,2.17
2024-03-16T06:23:42.924Z,2.07
2024-03-16T06:26:18.052Z,2.30
2024-03-16T06:28:48.501Z,1.67
2024-03-16T06:31:15.249Z,1.90
2024-03-16T06:33:46.899Z,2.13
2024-03-16T06:36:13.708Z,2.23
2024-03-16T06:38:40.737Z,1.77
2024-03-16T06:41:07.337Z,1.83
2024-03-16T06:43:33.815Z,2.03
2024-03-16T06:46:02.142Z,2.03
2024-03-16T06:48:29.121Z,1.80
2024-03-16T06:50:55.704Z,1.90
2024-03-16T06:53:22.341Z,1.70
2024-03-16T06:55:51.478Z,1.60
2024-03-16T06:58:18.096Z,1.70
2024-03-16T07:00:45.309Z,1.83
2024-03-16T07:03:13.327Z,2.17
2024-03-16T07:05:39.815Z,1.80
2024-03-16T07:08:10.879Z,1.90
2024-03-16T07:10:38.199Z,1.60
2024-03-16T07:13:05.292Z,2.40
2024-03-16T07:15:33.677Z,1.97
2024-03-16T07:18:00.386Z,1.73
2024-03-16T07:20:27.967Z,1.57
2024-03-16T07:22:55.543Z,1.77
2024-03-16T07:25:22.862Z,1.63
2024-03-16T07:27:49.996Z,2.00
2024-03-16T07:30:19.408Z,1.57
2024-03-16T07:32:47.404Z,2.10
2024-03-16T07:35:14.405Z,1.77
2024-03-16T07:37:41.177Z,1.60
2024-03-16T07:40:15.170Z,1.70
2024-03-16T07:42:45.047Z,1.70
2024-03-16T07:45:11.699Z,1.80
2024-03-16T07:47:39.097Z,1.90
2024-03-16T07:50:07.420Z,1.90
2024-03-16T07:52:34.985Z,1.50
2024-03-16T07:55:01.809Z,1.70
2024-03-16T07:57:31.226Z,1.60
2024-03-16T07:59:57.829Z,1.67
2024-03-16T08:02:24.488Z,1.43
2024-03-16T08:04:51.040Z,1.80
2024-03-16T08:07:17.744Z,1.60
2024-03-16T08:09:45.007Z,1.60
2024-03-16T08:12:11.763Z,1.70
2024-03-16T08:14:38.348Z,1.83
2024-03-16T08:17:05.144Z,1.50
2024-03-16T08:19:32.977Z,1.87
2024-03-16T08:22:00.466Z,1.80
2024-03-16T08:24:27.699Z,2.33
2024-03-16T08:26:54.092Z,1.67
2024-03-16T08:29:20.676Z,1.77
2024-03-16T08:31:48.112Z,1.40
2024-03-16T08:34:14.899Z,2.30
2024-03-16T08:36:42.031Z,1.77
2024-03-16T08:39:09.353Z,2.40
2024-03-16T08:41:37.664Z,1.70
2024-03-16T08:44:05.782Z,1.90
2024-03-16T08:46:33.299Z,1.50
2024-03-16T08:49:00.161Z,1.57
2024-03-16T08:51:27.043Z,1.80
2024-03-16T08:53:54.460Z,2.00
2024-03-16T08:56:21.412Z,1.60
2024-03-16T08:58:48.478Z,1.47
2024-03-16T09:01:19.340Z,1.73
2024-03-16T09:03:48.357Z,1.87
2024-03-16T09:06:15.927Z,1.50
2024-03-16T09:08:43.161Z,2.40
2024-03-16T09:11:10.763Z,2.13
2024-03-16T09:13:37.137Z,1.70
2024-03-16T09:16:07.650Z,1.93
2024-03-16T09:18:35.728Z,2.80
2024-03-16T09:21:03.291Z,2.10
2024-03-16T09:23:34.212Z,2.10
2024-03-16T09:26:05.378Z,2.00
2024-03-16T09:28:32.210Z,2.03
2024-03-16T09:31:00.080Z,2.10
2024-03-16T09:33:26.701Z,2.00
2024-03-16T09:35:56.080Z,2.60
2024-03-16T09:38:24.417Z,2.17
2024-03-16T09:40:56.843Z,1.93
